Aviation Digital Data Service (ADDS)

Output produced by METARs form (0559 UTC 20 October 2018)
found at http://www.aviationweather.gov/metar/data/
 
RKSG 200456Z 01003KT 5SM HZ CLR 19/03 A3026 RMK AO2A SLP248 T01940031 $
TAF RKSG 200400Z 2004/2110 34006KT 8000 HZ SKC QNH3024INS 
     BECMG 2017/2018 VRB03KT 4800 BR SKC QNH3026INS 
     BECMG 2018/2019 VRB03KT 3200 BR SKC QNH3026INS 
     BECMG 2100/2101 10006KT 8000 HZ FEW020 FEW210 QNH3021INS TX20/2005Z
TN05/2019Z
       
RKTU 200500Z 36002KT CAVOK 20/04 Q1024 NOSIG
TAF RKTU 200500Z 2006/2112 03006KT 9999 SCT030 TX20/2006Z TN04/2021Z
       
RKTN 200500Z 05001KT 9999 FEW040 21/03 Q1023 NOSIG
TAF RKTN 200500Z 2006/2112 30006KT 9999 SCT050 TN08/2021Z TX21/2106Z
       
RKPK 200500Z 05006KT CAVOK 21/03 Q1024 NOSIG
TAF RKPK 200500Z 2006/2112 03006KT 9999 FEW030 TN09/2021Z TX23/2106Z
       
RKSS 200500Z 33002KT CAVOK 20/M00 Q1025 NOSIG
TAF RKSS 200500Z 2006/2112 30005KT CAVOK TN06/2021Z TX19/2105Z 
     BECMG 2011/2012 06005KT 6000 NSC 
     BECMG 2101/2102 29006KT 
     BECMG 2111/2112 06005KT
       
RKSI 200530Z 28010KT CAVOK 18/03 Q1025 NOSIG
TAF RKSI 200500Z 2006/2112 30006KT CAVOK TN09/2021Z TX18/2106Z 
     BECMG 2013/2014 07006KT 
     BECMG 2102/2103 30006KT
       
RKPC 200500Z 04008KT 360V070 CAVOK 19/09 Q1024 NOSIG
TAF RKPC 200500Z 2006/2112 03008KT 9999 FEW030 BKN150 TN13/2021Z TX19/2105Z 
     BECMG 2010/2011 18005KT 
     BECMG 2101/2102 04009KT 
     BECMG 2110/2111 18005KT
       
RKJK 200456Z AUTO 26010KT 10SM CLR 20/07 A3025 RMK AO2 SLP248 T01950069 FZRANO $
TAF RKJK 192300Z 1923/2105 10006KT 9999 SKC QNH3026INS 
     BECMG 2002/2003 33009KT 9999 FEW050 FEW250 QNH3023INS TX19/2006Z TN06/2020Z
       
RKSO 200458Z 22003KT 7SM FEW200 20/02 A3024 RMK AO2A SLP244 T02010017 $
TAF RKSO 200300Z 2003/2109 32006KT 9000 HZ SKC QNH3025INS 
     BECMG 2017/2018 VRB03KT 4800 BR SKC QNH3026INS 
     BECMG 2019/2020 VRB03KT 3200 BR SKC QNH3028INS 
     TEMPO 2020/2024 1600 BR 
     BECMG 2023/2024 VRB06KT 8000 HZ FEW200 QNH3022INS TX20/2006Z TN04/2021Z
       
RKSM 200500Z 09003KT 9999 SKC 20/04 A3025
TAF RKSM 200500Z 2006/2112 27006KT 9999 FEW040 TX21/2006Z TN06/2021Z
       
RKNY 200500Z 06005KT 340V100 CAVOK 18/07 Q1023 NOSIG
TAF RKNY 200500Z 2006/2112 07005KT CAVOK TN09/2021Z TX19/2106Z 
     BECMG 2009/2010 25005KT 
     BECMG 2101/2102 07005KT 
     BECMG 2109/2110 25005KT